Hoegh Africa — C6TD3 — position and weather

sailwx.info

Track history (hours):
 
Tides and Currents Weather Stations Pressure Air Temp Water Temp Dewpoint Dewpoint Depression Visibility Wind Speed Wind Dir Waves Ship Positions

Hoegh Africa

Last reported at 2018-Jan-24 10:59 UTC. Time now 2018-Jan-24 11:23 UTC.
Position N 51°16' E 004°14'.

Length 200 m; draft 8.1 m.

Type: Cargo ship. MMSI: 311594000.

Date/timePositionNaut miles runAvg speedWind from/ knotsBaromVisibWave heightAir tempDewpointWater temp
2018-Jan-24 10:59N 51°16' E 004°14'0 0.0
2018-Jan-24 10:29N 51°16' E 004°14'0 0.0
2018-Jan-24 09:59N 51°16' E 004°14'0 0.0
2018-Jan-24 09:29N 51°16' E 004°14'0 0.0
2018-Jan-24 08:59N 51°16' E 004°14'0 0.0
2018-Jan-24 08:29N 51°16' E 004°14'0 0.0
2018-Jan-24 07:59N 51°16' E 004°14'0 0.0
2018-Jan-24 07:29N 51°16' E 004°14'0 0.0
2018-Jan-24 06:59N 51°16' E 004°14'0 0.0
2018-Jan-24 06:29N 51°16' E 004°14'0 0.0
2018-Jan-24 05:59N 51°16' E 004°14'0 0.0
2018-Jan-24 05:29N 51°16' E 004°14'0 0.0
2018-Jan-24 04:59N 51°16' E 004°14'0 0.0
2018-Jan-24 04:29N 51°16' E 004°14'0 0.0
2018-Jan-24 03:59N 51°16' E 004°14'0 0.0
2018-Jan-24 03:29N 51°16' E 004°14'0 0.0
2018-Jan-24 02:59N 51°16' E 004°14'1 1.7
2018-Jan-24 02:31N 51°16' E 004°15'1 1.6
2018-Jan-24 02:00N 51°16' E 004°17'0 0.0
2018-Jan-24 01:30N 51°16' E 004°17'1 2.4
2018-Jan-24 01:00N 51°16' E 004°18'3 5.7
2018-Jan-24 00:30N 51°19' E 004°16'4 8.5
2018-Jan-24 00:00N 51°23' E 004°13'4 8.1
2018-Jan-23 23:30N 51°22' E 004°06'611.0
2018-Jan-23 23:00N 51°26' E 004°00'612.5
2018-Jan-23 22:30N 51°21' E 003°54'611.1
2018-Jan-23 22:00N 51°22' E 003°45'510.7
2018-Jan-23 21:31N 51°26' E 003°40'5 8.9
2018-Jan-23 21:00N 51°26' E 003°33'511.0
2018-Jan-23 20:30N 51°24' E 003°24'816.3
2018-Jan-23 20:00N 51°24' E 003°11'714.5
2018-Jan-23 19:30N 51°26' E 003°00'815.1
2018-Jan-23 19:00N 51°33' E 003°07'814.8
2018-Jan-23 18:29N 51°40' E 003°12'611.4
2018-Jan-23 17:58N 51°45' E 003°16'612.6
2018-Jan-23 17:27N 51°52' E 003°18'614.0
2018-Jan-23 17:00N 51°58' E 003°20'713.4
2018-Jan-23 16:30N 52°04' E 003°22'713.6
2018-Jan-23 15:59N 52°11' E 003°22'713.0
2018-Jan-23 15:29N 52°18' E 003°23'5714.6
2018-Jan-23 11:34N 53°06' E 004°13'215.3
2018-Jan-23 11:26N 53°08' E 004°16'714.7
2018-Jan-23 10:58N 53°13' E 004°24'1115.2
2018-Jan-23 10:13N 53°23' E 004°32'415.7
2018-Jan-23 10:00N 53°26' E 004°35'715.3
2018-Jan-23 09:31N 53°30' E 004°45'815.3
2018-Jan-23 09:00N 53°33' E 004°57'714.9
2018-Jan-23 08:31N 53°36' E 005°09'815.2
2018-Jan-23 08:00N 53°38' E 005°21'814.6
2018-Jan-23 07:27N 53°41' E 005°34'7215.6
2018-Jan-23 02:50N 53°59' E 007°32'712.6
2018-Jan-23 02:18N 53°56' E 007°43'413.6
2018-Jan-23 02:00N 53°53' E 007°47'612.0
2018-Jan-23 01:30N 53°52' E 007°57'714.5
2018-Jan-23 01:00N 53°48' E 008°08'714.1
2018-Jan-23 00:30N 53°43' E 008°16'713.5
2018-Jan-23 00:00N 53°39' E 008°25'510.3
2018-Jan-22 23:30N 53°35' E 008°31'2 3.2
2018-Jan-22 23:00N 53°34' E 008°33'0 0.4
2018-Jan-22 22:30N 53°34' E 008°33'0 0.4
2018-Jan-22 21:59N 53°35' E 008°33'0 0.0
2018-Jan-22 21:29N 53°35' E 008°33'0 0.0
2018-Jan-22 20:59N 53°35' E 008°33'0 0.0
2018-Jan-22 20:29N 53°35' E 008°33'0 0.0
2018-Jan-22 19:59N 53°35' E 008°33'0 0.0
2018-Jan-22 19:29N 53°35' E 008°33'0 0.0
2018-Jan-22 18:59N 53°35' E 008°33'0 0.0
2018-Jan-22 18:26N 53°35' E 008°33'0 0.0
2018-Jan-22 17:59N 53°35' E 008°33'0 0.0
2018-Jan-22 17:29N 53°35' E 008°33'0 0.0
2018-Jan-22 16:59N 53°35' E 008°33'0 0.0
2018-Jan-22 16:29N 53°35' E 008°33'0 0.0
2018-Jan-22 15:59N 53°35' E 008°33'0 0.0
2018-Jan-22 15:29N 53°35' E 008°33'0 0.0
2018-Jan-22 14:59N 53°35' E 008°33'0 0.0
2018-Jan-22 14:29N 53°35' E 008°33'0 0.0
2018-Jan-22 13:59N 53°35' E 008°33'0 0.0
2018-Jan-22 13:29N 53°35' E 008°33'0 0.0
2018-Jan-22 12:59N 53°35' E 008°33'0 0.0
2018-Jan-22 12:29N 53°35' E 008°33'0 0.0
2018-Jan-22 11:59N 53°35' E 008°33'0 0.0
2018-Jan-22 11:29N 53°35' E 008°33'0 0.0
2018-Jan-22 10:59N 53°35' E 008°33'0 0.0
2018-Jan-22 10:29N 53°35' E 008°33'0 0.0
2018-Jan-22 09:59N 53°35' E 008°33'0 0.0
2018-Jan-22 09:29N 53°35' E 008°33'0 0.0
2018-Jan-22 08:59N 53°35' E 008°33'0 0.0
2018-Jan-22 08:29N 53°35' E 008°33'0 0.0
2018-Jan-22 07:59N 53°35' E 008°33'0 0.0
2018-Jan-22 07:29N 53°35' E 008°33'0 0.0
2018-Jan-22 06:59N 53°35' E 008°33'0 0.0
2018-Jan-22 06:26N 53°35' E 008°33'0 0.0
2018-Jan-22 05:59N 53°35' E 008°33'0 0.0
2018-Jan-22 05:29N 53°35' E 008°33'0 0.0
2018-Jan-22 04:59N 53°35' E 008°33'0 0.0
2018-Jan-22 04:28N 53°35' E 008°33'0 0.0
2018-Jan-22 03:58N 53°35' E 008°33'0 0.0
2018-Jan-22 03:28N 53°35' E 008°33'0 0.0
2018-Jan-22 02:58N 53°35' E 008°33'0 0.0
2018-Jan-22 02:28N 53°35' E 008°33'0 0.0
2018-Jan-22 01:58N 53°35' E 008°33'0 0.0
2018-Jan-22 01:28N 53°35' E 008°33'0 0.0
2018-Jan-22 00:58N 53°35' E 008°33'0 0.0
2018-Jan-22 00:28N 53°35' E 008°33'0 0.0
2018-Jan-21 23:58N 53°35' E 008°33'0 0.6
2018-Jan-21 23:30N 53°34' E 008°33'0 0.5
2018-Jan-21 23:00N 53°34' E 008°33'2 4.7
2018-Jan-21 22:30N 53°36' E 008°30'612.6
2018-Jan-21 22:00N 53°40' E 008°23'713.4
2018-Jan-21 21:30N 53°44' E 008°14'713.2
2018-Jan-21 21:00N 53°49' E 008°06'612.7
2018-Jan-21 20:30N 53°52' E 007°56'55 1.8
2018-Jan-20 13:36N 54°42' E 007°21'114.1
2018-Jan-20 13:30N 54°44' E 007°21'714.2
2018-Jan-20 13:00N 54°51' E 007°21'714.3
2018-Jan-20 12:30N 54°58' E 007°21'714.5
2018-Jan-20 12:00N 55°05' E 007°20'714.7
2018-Jan-20 11:30N 55°12' E 007°19'714.8
2018-Jan-20 11:00N 55°20' E 007°19'714.7
2018-Jan-20 10:30N 55°27' E 007°18'714.5
2018-Jan-20 10:00N 55°34' E 007°18'714.1
2018-Jan-20 09:30N 55°41' E 007°18'714.0
2018-Jan-20 09:00N 55°48' E 007°19'714.1
2018-Jan-20 08:30N 55°55' E 007°21'14712.2
2018-Jan-19 20:30N 57°48' E 010°14'713.7
2018-Jan-19 20:01N 57°49' E 010°26'713.2
2018-Jan-19 19:30N 57°49' E 010°39'713.1
2018-Jan-19 19:00N 57°48' E 010°51'714.3
2018-Jan-19 18:30N 57°45' E 011°03'714.0
2018-Jan-19 18:00N 57°42' E 011°14'714.4
2018-Jan-19 17:31N 57°38' E 011°26'713.2
2018-Jan-19 17:00N 57°36' E 011°38'510.7
2018-Jan-19 16:30N 57°40' E 011°46'4 7.7
2018-Jan-19 16:00N 57°41' E 011°52'0 0.0
2018-Jan-19 15:28N 57°41' E 011°52'0 0.0
2018-Jan-19 14:58N 57°41' E 011°52'0 0.0
2018-Jan-19 14:28N 57°41' E 011°52'0 0.0
2018-Jan-19 13:58N 57°41' E 011°52'0 0.0
2018-Jan-19 13:28N 57°41' E 011°52'0 0.0
2018-Jan-19 12:58N 57°41' E 011°52'0 0.0
2018-Jan-19 12:28N 57°41' E 011°52'0 0.0
2018-Jan-19 11:58N 57°41' E 011°52'0 0.0
2018-Jan-19 11:28N 57°41' E 011°52'0 0.0
2018-Jan-19 10:58N 57°41' E 011°52'0 0.0
2018-Jan-19 10:28N 57°41' E 011°52'0 0.0
2018-Jan-19 10:01N 57°41' E 011°52'0 0.0
2018-Jan-19 09:31N 57°41' E 011°52'0 0.0
2018-Jan-19 09:00N 57°41' E 011°52'0 0.0
2018-Jan-19 08:31N 57°41' E 011°52'0 0.0
2018-Jan-19 08:00N 57°41' E 011°52'0 0.0
2018-Jan-19 07:30N 57°41' E 011°52'0 0.0
2018-Jan-19 07:00N 57°41' E 011°52'0 0.0
2018-Jan-19 06:30N 57°41' E 011°52'0 0.0
2018-Jan-19 06:00N 57°41' E 011°52'0 0.0
2018-Jan-19 05:30N 57°41' E 011°52'0 0.0
2018-Jan-19 05:00N 57°41' E 011°52'0 0.0
2018-Jan-19 04:30N 57°41' E 011°52'0 0.0
2018-Jan-19 04:00N 57°41' E 011°52'0 0.0
2018-Jan-19 03:30N 57°41' E 011°52'0 0.0
2018-Jan-19 03:00N 57°41' E 011°52'0 0.0
2018-Jan-19 02:30N 57°41' E 011°52'0 0.0
2018-Jan-19 02:00N 57°41' E 011°52'0 0.0
2018-Jan-19 01:30N 57°41' E 011°52'0 0.0
2018-Jan-19 01:00N 57°41' E 011°52'0 0.0
2018-Jan-19 00:30N 57°41' E 011°52'0 0.0
2018-Jan-19 00:00N 57°41' E 011°52'0 0.0
2018-Jan-18 23:30N 57°41' E 011°52'0 0.0
2018-Jan-18 23:00N 57°41' E 011°52'0 0.0
2018-Jan-18 22:30N 57°41' E 011°52'0 0.0
2018-Jan-18 22:00N 57°41' E 011°52'0 0.0
2018-Jan-18 21:30N 57°41' E 011°52'0 0.0
2018-Jan-18 21:00N 57°41' E 011°52'0 0.0
2018-Jan-18 20:30N 57°41' E 011°52'0 0.0
2018-Jan-18 20:00N 57°41' E 011°52'0 0.0
2018-Jan-18 19:30N 57°41' E 011°52'0 0.0
2018-Jan-18 19:00N 57°41' E 011°52'0 0.0
2018-Jan-18 18:30N 57°41' E 011°52'0 0.0
2018-Jan-18 18:00N 57°41' E 011°52'0 0.3
2018-Jan-18 17:30N 57°41' E 011°52'2 3.3
2018-Jan-18 17:00N 57°41' E 011°49'510.7
2018-Jan-18 16:30N 57°38' E 011°41'510.5
2018-Jan-18 16:00N 57°37' E 011°31'5 9.4
2018-Jan-18 15:30N 57°39' E 011°23'3 6.1
2018-Jan-18 15:00N 57°40' E 011°18'0 0.6
2018-Jan-18 14:30N 57°40' E 011°18'0 0.6
2018-Jan-18 14:00N 57°40' E 011°18'0 0.5
2018-Jan-18 13:30N 57°41' E 011°18'0 0.6
2018-Jan-18 13:00N 57°41' E 011°18'0 0.6
2018-Jan-18 12:30N 57°41' E 011°19'0 0.5
2018-Jan-18 12:00N 57°41' E 011°19'0 0.6
2018-Jan-18 11:30N 57°42' E 011°19'0 0.7
2018-Jan-18 11:00N 57°42' E 011°20'0 0.7
2018-Jan-18 10:30N 57°42' E 011°20'0 0.9
2018-Jan-18 10:00N 57°42' E 011°21'0 0.8
2018-Jan-18 09:30N 57°43' E 011°21'0 0.7
2018-Jan-18 09:00N 57°43' E 011°21'0 0.6
2018-Jan-18 08:30N 57°43' E 011°21'0 0.2
2018-Jan-18 08:00N 57°43' E 011°21'2 4.6
2018-Jan-18 07:30N 57°41' E 011°20'2 3.9
2018-Jan-18 07:00N 57°40' E 011°22'0 0.9
2018-Jan-18 06:30N 57°40' E 011°23'0 0.7
2018-Jan-18 06:00N 57°40' E 011°23'0 0.8
2018-Jan-18 05:30N 57°41' E 011°23'0 0.9
2018-Jan-18 05:00N 57°41' E 011°23'1 1.2
2018-Jan-18 04:31N 57°42' E 011°23'1 1.2
2018-Jan-18 04:00N 57°42' E 011°22'1 1.4
2018-Jan-18 03:30N 57°43' E 011°21'0 0.7
2018-Jan-18 03:00N 57°43' E 011°21'1 1.6
2018-Jan-18 02:30N 57°44' E 011°20'1 1.3
2018-Jan-18 02:00N 57°44' E 011°18'1 1.2
2018-Jan-18 01:30N 57°44' E 011°17'0 0.2
2018-Jan-18 01:00N 57°44' E 011°18'5 5.3
2018-Jan-18 00:00N 57°42' E 011°27'0 0.2
2018-Jan-17 23:57N 57°42' E 011°27'  
Track history (hours):
 
Tides and Currents Weather Stations Pressure Air Temp Water Temp Dewpoint Dewpoint Depression Visibility Wind Speed Wind Dir Waves Ship Positions

Hoegh Africa

Last reported at 2018-Jan-24 10:59 UTC. Time now 2018-Jan-24 11:23 UTC.
Position N 51°16' E 004°14'.

Length 200 m; draft 8.1 m.

Type: Cargo ship. MMSI: 311594000.

Date/timePositionNaut miles runAvg speedWind from/ knotsBaromVisibWave heightAir tempDewpointWater temp
2018-Jan-24 10:59N 51°16' E 004°14'0 0.0
2018-Jan-24 10:29N 51°16' E 004°14'0 0.0
2018-Jan-24 09:59N 51°16' E 004°14'0 0.0
2018-Jan-24 09:29N 51°16' E 004°14'0 0.0
2018-Jan-24 08:59N 51°16' E 004°14'0 0.0
2018-Jan-24 08:29N 51°16' E 004°14'0 0.0
2018-Jan-24 07:59N 51°16' E 004°14'0 0.0
2018-Jan-24 07:29N 51°16' E 004°14'0 0.0
2018-Jan-24 06:59N 51°16' E 004°14'0 0.0
2018-Jan-24 06:29N 51°16' E 004°14'0 0.0
2018-Jan-24 05:59N 51°16' E 004°14'0 0.0
2018-Jan-24 05:29N 51°16' E 004°14'0 0.0
2018-Jan-24 04:59N 51°16' E 004°14'0 0.0
2018-Jan-24 04:29N 51°16' E 004°14'0 0.0
2018-Jan-24 03:59N 51°16' E 004°14'0 0.0
2018-Jan-24 03:29N 51°16' E 004°14'0 0.0
2018-Jan-24 02:59N 51°16' E 004°14'1 1.7
2018-Jan-24 02:31N 51°16' E 004°15'1 1.6
2018-Jan-24 02:00N 51°16' E 004°17'0 0.0
2018-Jan-24 01:30N 51°16' E 004°17'1 2.4
2018-Jan-24 01:00N 51°16' E 004°18'3 5.7
2018-Jan-24 00:30N 51°19' E 004°16'4 8.5
2018-Jan-24 00:00N 51°23' E 004°13'4 8.1
2018-Jan-23 23:30N 51°22' E 004°06'611.0
2018-Jan-23 23:00N 51°26' E 004°00'612.5
2018-Jan-23 22:30N 51°21' E 003°54'611.1
2018-Jan-23 22:00N 51°22' E 003°45'510.7
2018-Jan-23 21:31N 51°26' E 003°40'5 8.9
2018-Jan-23 21:00N 51°26' E 003°33'511.0
2018-Jan-23 20:30N 51°24' E 003°24'816.3
2018-Jan-23 20:00N 51°24' E 003°11'714.5
2018-Jan-23 19:30N 51°26' E 003°00'815.1
2018-Jan-23 19:00N 51°33' E 003°07'814.8
2018-Jan-23 18:29N 51°40' E 003°12'611.4
2018-Jan-23 17:58N 51°45' E 003°16'612.6
2018-Jan-23 17:27N 51°52' E 003°18'614.0
2018-Jan-23 17:00N 51°58' E 003°20'713.4
2018-Jan-23 16:30N 52°04' E 003°22'713.6
2018-Jan-23 15:59N 52°11' E 003°22'713.0
2018-Jan-23 15:29N 52°18' E 003°23'5714.6
2018-Jan-23 11:34N 53°06' E 004°13'215.3
2018-Jan-23 11:26N 53°08' E 004°16'714.7
2018-Jan-23 10:58N 53°13' E 004°24'1115.2
2018-Jan-23 10:13N 53°23' E 004°32'415.7
2018-Jan-23 10:00N 53°26' E 004°35'715.3
2018-Jan-23 09:31N 53°30' E 004°45'815.3
2018-Jan-23 09:00N 53°33' E 004°57'714.9
2018-Jan-23 08:31N 53°36' E 005°09'815.2
2018-Jan-23 08:00N 53°38' E 005°21'814.6
2018-Jan-23 07:27N 53°41' E 005°34'7215.6
2018-Jan-23 02:50N 53°59' E 007°32'712.6
2018-Jan-23 02:18N 53°56' E 007°43'413.6
2018-Jan-23 02:00N 53°53' E 007°47'612.0
2018-Jan-23 01:30N 53°52' E 007°57'714.5
2018-Jan-23 01:00N 53°48' E 008°08'714.1
2018-Jan-23 00:30N 53°43' E 008°16'713.5
2018-Jan-23 00:00N 53°39' E 008°25'510.3
2018-Jan-22 23:30N 53°35' E 008°31'2 3.2
2018-Jan-22 23:00N 53°34' E 008°33'0 0.4
2018-Jan-22 22:30N 53°34' E 008°33'0 0.4
2018-Jan-22 21:59N 53°35' E 008°33'0 0.0
2018-Jan-22 21:29N 53°35' E 008°33'0 0.0
2018-Jan-22 20:59N 53°35' E 008°33'0 0.0
2018-Jan-22 20:29N 53°35' E 008°33'0 0.0
2018-Jan-22 19:59N 53°35' E 008°33'0 0.0
2018-Jan-22 19:29N 53°35' E 008°33'0 0.0
2018-Jan-22 18:59N 53°35' E 008°33'0 0.0
2018-Jan-22 18:26N 53°35' E 008°33'0 0.0
2018-Jan-22 17:59N 53°35' E 008°33'0 0.0
2018-Jan-22 17:29N 53°35' E 008°33'0 0.0
2018-Jan-22 16:59N 53°35' E 008°33'0 0.0
2018-Jan-22 16:29N 53°35' E 008°33'0 0.0
2018-Jan-22 15:59N 53°35' E 008°33'0 0.0
2018-Jan-22 15:29N 53°35' E 008°33'0 0.0
2018-Jan-22 14:59N 53°35' E 008°33'0 0.0
2018-Jan-22 14:29N 53°35' E 008°33'0 0.0
2018-Jan-22 13:59N 53°35' E 008°33'0 0.0
2018-Jan-22 13:29N 53°35' E 008°33'0 0.0
2018-Jan-22 12:59N 53°35' E 008°33'0 0.0
2018-Jan-22 12:29N 53°35' E 008°33'0 0.0
2018-Jan-22 11:59N 53°35' E 008°33'0 0.0
2018-Jan-22 11:29N 53°35' E 008°33'0 0.0
2018-Jan-22 10:59N 53°35' E 008°33'0 0.0
2018-Jan-22 10:29N 53°35' E 008°33'0 0.0
2018-Jan-22 09:59N 53°35' E 008°33'0 0.0
2018-Jan-22 09:29N 53°35' E 008°33'0 0.0
2018-Jan-22 08:59N 53°35' E 008°33'0 0.0
2018-Jan-22 08:29N 53°35' E 008°33'0 0.0
2018-Jan-22 07:59N 53°35' E 008°33'0 0.0
2018-Jan-22 07:29N 53°35' E 008°33'0 0.0
2018-Jan-22 06:59N 53°35' E 008°33'0 0.0
2018-Jan-22 06:26N 53°35' E 008°33'0 0.0
2018-Jan-22 05:59N 53°35' E 008°33'0 0.0
2018-Jan-22 05:29N 53°35' E 008°33'0 0.0
2018-Jan-22 04:59N 53°35' E 008°33'0 0.0
2018-Jan-22 04:28N 53°35' E 008°33'0 0.0
2018-Jan-22 03:58N 53°35' E 008°33'0 0.0
2018-Jan-22 03:28N 53°35' E 008°33'0 0.0
2018-Jan-22 02:58N 53°35' E 008°33'0 0.0
2018-Jan-22 02:28N 53°35' E 008°33'0 0.0
2018-Jan-22 01:58N 53°35' E 008°33'0 0.0
2018-Jan-22 01:28N 53°35' E 008°33'0 0.0
2018-Jan-22 00:58N 53°35' E 008°33'0 0.0
2018-Jan-22 00:28N 53°35' E 008°33'0 0.0
2018-Jan-21 23:58N 53°35' E 008°33'0 0.6
2018-Jan-21 23:30N 53°34' E 008°33'0 0.5
2018-Jan-21 23:00N 53°34' E 008°33'2 4.7
2018-Jan-21 22:30N 53°36' E 008°30'612.6
2018-Jan-21 22:00N 53°40' E 008°23'713.4
2018-Jan-21 21:30N 53°44' E 008°14'713.2
2018-Jan-21 21:00N 53°49' E 008°06'612.7
2018-Jan-21 20:30N 53°52' E 007°56'55 1.8
2018-Jan-20 13:36N 54°42' E 007°21'114.1
2018-Jan-20 13:30N 54°44' E 007°21'714.2
2018-Jan-20 13:00N 54°51' E 007°21'714.3
2018-Jan-20 12:30N 54°58' E 007°21'714.5
2018-Jan-20 12:00N 55°05' E 007°20'714.7
2018-Jan-20 11:30N 55°12' E 007°19'714.8
2018-Jan-20 11:00N 55°20' E 007°19'714.7
2018-Jan-20 10:30N 55°27' E 007°18'714.5
2018-Jan-20 10:00N 55°34' E 007°18'714.1
2018-Jan-20 09:30N 55°41' E 007°18'714.0
2018-Jan-20 09:00N 55°48' E 007°19'714.1
2018-Jan-20 08:30N 55°55' E 007°21'14712.2
2018-Jan-19 20:30N 57°48' E 010°14'713.7
2018-Jan-19 20:01N 57°49' E 010°26'713.2
2018-Jan-19 19:30N 57°49' E 010°39'713.1
2018-Jan-19 19:00N 57°48' E 010°51'714.3
2018-Jan-19 18:30N 57°45' E 011°03'714.0
2018-Jan-19 18:00N 57°42' E 011°14'714.4
2018-Jan-19 17:31N 57°38' E 011°26'713.2
2018-Jan-19 17:00N 57°36' E 011°38'510.7
2018-Jan-19 16:30N 57°40' E 011°46'4 7.7
2018-Jan-19 16:00N 57°41' E 011°52'0 0.0
2018-Jan-19 15:28N 57°41' E 011°52'0 0.0
2018-Jan-19 14:58N 57°41' E 011°52'0 0.0
2018-Jan-19 14:28N 57°41' E 011°52'0 0.0
2018-Jan-19 13:58N 57°41' E 011°52'0 0.0
2018-Jan-19 13:28N 57°41' E 011°52'0 0.0
2018-Jan-19 12:58N 57°41' E 011°52'0 0.0
2018-Jan-19 12:28N 57°41' E 011°52'0 0.0
2018-Jan-19 11:58N 57°41' E 011°52'0 0.0
2018-Jan-19 11:28N 57°41' E 011°52'0 0.0
2018-Jan-19 10:58N 57°41' E 011°52'0 0.0
2018-Jan-19 10:28N 57°41' E 011°52'0 0.0
2018-Jan-19 10:01N 57°41' E 011°52'0 0.0
2018-Jan-19 09:31N 57°41' E 011°52'0 0.0
2018-Jan-19 09:00N 57°41' E 011°52'0 0.0
2018-Jan-19 08:31N 57°41' E 011°52'0 0.0
2018-Jan-19 08:00N 57°41' E 011°52'0 0.0
2018-Jan-19 07:30N 57°41' E 011°52'0 0.0
2018-Jan-19 07:00N 57°41' E 011°52'0 0.0
2018-Jan-19 06:30N 57°41' E 011°52'0 0.0
2018-Jan-19 06:00N 57°41' E 011°52'0 0.0
2018-Jan-19 05:30N 57°41' E 011°52'0 0.0
2018-Jan-19 05:00N 57°41' E 011°52'0 0.0
2018-Jan-19 04:30N 57°41' E 011°52'0 0.0
2018-Jan-19 04:00N 57°41' E 011°52'0 0.0
2018-Jan-19 03:30N 57°41' E 011°52'0 0.0
2018-Jan-19 03:00N 57°41' E 011°52'0 0.0
2018-Jan-19 02:30N 57°41' E 011°52'0 0.0
2018-Jan-19 02:00N 57°41' E 011°52'0 0.0
2018-Jan-19 01:30N 57°41' E 011°52'0 0.0
2018-Jan-19 01:00N 57°41' E 011°52'0 0.0
2018-Jan-19 00:30N 57°41' E 011°52'0 0.0
2018-Jan-19 00:00N 57°41' E 011°52'0 0.0
2018-Jan-18 23:30N 57°41' E 011°52'0 0.0
2018-Jan-18 23:00N 57°41' E 011°52'0 0.0
2018-Jan-18 22:30N 57°41' E 011°52'0 0.0
2018-Jan-18 22:00N 57°41' E 011°52'0 0.0
2018-Jan-18 21:30N 57°41' E 011°52'0 0.0
2018-Jan-18 21:00N 57°41' E 011°52'0 0.0
2018-Jan-18 20:30N 57°41' E 011°52'0 0.0
2018-Jan-18 20:00N 57°41' E 011°52'0 0.0
2018-Jan-18 19:30N 57°41' E 011°52'0 0.0
2018-Jan-18 19:00N 57°41' E 011°52'0 0.0
2018-Jan-18 18:30N 57°41' E 011°52'0 0.0
2018-Jan-18 18:00N 57°41' E 011°52'0 0.3
2018-Jan-18 17:30N 57°41' E 011°52'2 3.3
2018-Jan-18 17:00N 57°41' E 011°49'510.7
2018-Jan-18 16:30N 57°38' E 011°41'510.5
2018-Jan-18 16:00N 57°37' E 011°31'5 9.4
2018-Jan-18 15:30N 57°39' E 011°23'3 6.1
2018-Jan-18 15:00N 57°40' E 011°18'0 0.6
2018-Jan-18 14:30N 57°40' E 011°18'0 0.6
2018-Jan-18 14:00N 57°40' E 011°18'0 0.5
2018-Jan-18 13:30N 57°41' E 011°18'0 0.6
2018-Jan-18 13:00N 57°41' E 011°18'0 0.6
2018-Jan-18 12:30N 57°41' E 011°19'0 0.5
2018-Jan-18 12:00N 57°41' E 011°19'0 0.6
2018-Jan-18 11:30N 57°42' E 011°19'0 0.7
2018-Jan-18 11:00N 57°42' E 011°20'0 0.7
2018-Jan-18 10:30N 57°42' E 011°20'0 0.9
2018-Jan-18 10:00N 57°42' E 011°21'0 0.8
2018-Jan-18 09:30N 57°43' E 011°21'0 0.7
2018-Jan-18 09:00N 57°43' E 011°21'0 0.6
2018-Jan-18 08:30N 57°43' E 011°21'0 0.2
2018-Jan-18 08:00N 57°43' E 011°21'2 4.6
2018-Jan-18 07:30N 57°41' E 011°20'2 3.9
2018-Jan-18 07:00N 57°40' E 011°22'0 0.9
2018-Jan-18 06:30N 57°40' E 011°23'0 0.7
2018-Jan-18 06:00N 57°40' E 011°23'0 0.8
2018-Jan-18 05:30N 57°41' E 011°23'0 0.9
2018-Jan-18 05:00N 57°41' E 011°23'1 1.2
2018-Jan-18 04:31N 57°42' E 011°23'1 1.2
2018-Jan-18 04:00N 57°42' E 011°22'1 1.4
2018-Jan-18 03:30N 57°43' E 011°21'0 0.7
2018-Jan-18 03:00N 57°43' E 011°21'1 1.6
2018-Jan-18 02:30N 57°44' E 011°20'1 1.3
2018-Jan-18 02:00N 57°44' E 011°18'1 1.2
2018-Jan-18 01:30N 57°44' E 011°17'0 0.2
2018-Jan-18 01:00N 57°44' E 011°18'5 5.3
2018-Jan-18 00:00N 57°42' E 011°27'0 0.2
2018-Jan-17 23:57N 57°42' E 011°27'  

Dump ship's entire track history